Time;durP1;ratioP1;P1;durP2;ratioP2;P2;SDS_P1;SDS_P2;PMS_P1;PMS_P2;Temp;Humidity;BMP_temperature;BMP_pressure;BME280_temperature;BME280_humidity;BME280_pressure;Samples;Min_cycle;Max_cycle;Signal;HPM_P1;HPM_P2
2023/06/22 00:01:23;;;;;;;15.05;13.45;;;;;;;;;;5095342;28;20247;-81
2023/06/22 00:03:50;;;;;;;9.77;8.88;;;;;;;;;;5095255;28;20292;-81
2023/06/22 00:06:18;;;;;;;6.93;6.32;;;;;;;;;;5094330;28;20204;-80
2023/06/22 00:08:45;;;;;;;7.75;7.13;;;;;;;;;;5094753;28;20303;-80
2023/06/22 00:11:14;;;;;;;6.78;6.18;;;;;;;;;;5094506;28;20670;-80
2023/06/22 00:13:42;;;;;;;5.25;4.72;;;;;;;;;;5094056;28;20209;-81
2023/06/22 00:16:09;;;;;;;6.03;5.53;;;;;;;;;;5094289;28;20291;-80
2023/06/22 00:18:37;;;;;;;4.95;4.60;;;;;;;;;;5094438;28;20265;-80
2023/06/22 00:21:06;;;;;;;6.10;4.50;;;;;;;;;;5093815;28;20785;-81
2023/06/22 00:23:34;;;;;;;4.60;4.30;;;;;;;;;;5094435;28;20200;-81
2023/06/22 00:26:01;;;;;;;5.10;4.80;;;;;;;;;;5094167;28;20270;-80
2023/06/22 00:28:30;;;;;;;5.47;5.05;;;;;;;;;;5093771;28;20204;-81
2023/06/22 00:30:58;;;;;;;5.30;4.93;;;;;;;;;;5086056;28;20315;-81
2023/06/22 00:33:25;;;;;;;5.50;5.10;;;;;;;;;;5093211;28;20290;-81
2023/06/22 00:35:54;;;;;;;5.00;4.60;;;;;;;;;;5093794;28;20212;-81
2023/06/22 00:38:21;;;;;;;4.97;4.57;;;;;;;;;;5093758;28;20782;-80
2023/06/22 00:40:49;;;;;;;5.03;4.63;;;;;;;;;;5093840;28;20255;-81
2023/06/22 00:43:16;;;;;;;5.78;5.38;;;;;;;;;;5093680;28;20287;-81
2023/06/22 00:45:45;;;;;;;5.50;5.03;;;;;;;;;;5094006;28;20286;-81
2023/06/22 00:48:14;;;;;;;5.22;4.82;;;;;;;;;;5093832;28;20219;-81
2023/06/22 00:50:41;;;;;;;6.80;5.75;;;;;;;;;;5094072;28;20668;-81
2023/06/22 00:53:11;;;;;;;4.70;4.30;;;;;;;;;;5093629;28;20204;-81
2023/06/22 00:55:43;;;;;;;4.40;4.10;;;;;;;;;;5093851;28;20206;-81
2023/06/22 00:58:11;;;;;;;4.20;3.90;;;;;;;;;;5093481;28;20303;-81
2023/06/22 01:00:39;;;;;;;3.45;3.25;;;;;;;;;;5092731;28;20655;-81
2023/06/22 01:03:08;;;;;;;4.07;3.78;;;;;;;;;;5091073;28;20279;-81
2023/06/22 01:05:37;;;;;;;3.38;3.17;;;;;;;;;;5085054;28;20199;-81
2023/06/22 01:08:17;;;;;;;3.15;2.95;;;;;;;;;;5096448;28;20592;-81
2023/06/22 01:10:48;;;;;;;3.28;3.08;;;;;;;;;;5093451;28;20598;-81
2023/06/22 01:13:25;;;;;;;4.20;3.90;;;;;;;;;;5106421;28;20184;-82
2023/06/22 01:15:58;;;;;;;4.40;4.10;;;;;;;;;;5138970;28;20250;-81
2023/06/22 01:18:29;;;;;;;4.93;4.60;;;;;;;;;;5138935;28;20176;-81
2023/06/22 01:20:57;;;;;;;4.38;4.07;;;;;;;;;;5133622;28;20239;-82
2023/06/22 01:23:31;;;;;;;5.03;4.53;;;;;;;;;;5114980;28;20203;-81
2023/06/22 01:26:07;;;;;;;5.15;4.35;;;;;;;;;;5090964;28;20306;-82
2023/06/22 01:28:44;;;;;;;4.90;4.53;;;;;;;;;;5097927;28;20202;-82
2023/06/22 01:31:13;;;;;;;6.20;5.70;;;;;;;;;;5098055;28;20302;-82
2023/06/22 01:33:44;;;;;;;6.15;5.75;;;;;;;;;;5101604;28;20284;-82
2023/06/22 01:36:12;;;;;;;6.97;6.43;;;;;;;;;;5095902;28;20204;-82
2023/06/22 01:38:40;;;;;;;7.22;6.55;;;;;;;;;;5100138;28;20291;-81
2023/06/22 01:41:07;;;;;;;8.00;7.40;;;;;;;;;;5096208;28;20319;-81
2023/06/22 01:43:36;;;;;;;8.07;7.32;;;;;;;;;;5096233;28;20231;-81
2023/06/22 01:46:05;;;;;;;8.82;8.02;;;;;;;;;;5096415;28;20625;-81
2023/06/22 01:48:33;;;;;;;10.93;9.82;;;;;;;;;;5096836;28;20279;-81
2023/06/22 01:51:01;;;;;;;8.68;7.97;;;;;;;;;;5101517;28;20686;-82
2023/06/22 01:53:28;;;;;;;10.45;9.48;;;;;;;;;;5095332;28;20309;-82
2023/06/22 01:55:56;;;;;;;8.20;7.50;;;;;;;;;;5092383;28;20287;-81
2023/06/22 01:58:26;;;;;;;6.88;6.38;;;;;;;;;;5092023;28;20207;-81
2023/06/22 02:00:59;;;;;;;6.70;6.20;;;;;;;;;;5092533;28;20219;-81
2023/06/22 02:03:32;;;;;;;5.40;5.00;;;;;;;;;;5097834;28;20211;-81
2023/06/22 02:06:14;;;;;;;4.07;3.72;;;;;;;;;;5085084;28;20553;-81
2023/06/22 02:08:45;;;;;;;3.95;3.65;;;;;;;;;;5091823;28;20200;-81
2023/06/22 02:11:13;;;;;;;6.13;5.63;;;;;;;;;;5092164;28;20242;-81
2023/06/22 02:13:43;;;;;;;6.72;6.22;;;;;;;;;;5092204;28;20196;-81
2023/06/22 02:16:10;;;;;;;5.22;4.82;;;;;;;;;;5092214;28;20246;-81
2023/06/22 02:18:40;;;;;;;4.05;3.75;;;;;;;;;;5091770;28;20287;-81
2023/06/22 02:21:07;;;;;;;3.85;3.55;;;;;;;;;;5091246;28;20228;-81
2023/06/22 02:23:35;;;;;;;3.90;3.60;;;;;;;;;;5091790;28;20211;-81
2023/06/22 02:26:03;;;;;;;4.30;4.00;;;;;;;;;;5091820;28;20680;-81
2023/06/22 02:28:31;;;;;;;5.05;4.65;;;;;;;;;;5091809;28;20204;-81
2023/06/22 02:30:58;;;;;;;4.60;4.20;;;;;;;;;;5091554;28;20231;-81
2023/06/22 02:33:27;;;;;;;4.97;4.57;;;;;;;;;;5091438;28;20852;-81
2023/06/22 02:35:55;;;;;;;4.60;4.30;;;;;;;;;;5091745;28;20550;-81
2023/06/22 02:38:24;;;;;;;4.28;3.97;;;;;;;;;;5090865;28;20204;-81
2023/06/22 02:40:51;;;;;;;5.18;4.78;;;;;;;;;;5091850;28;20282;-81
2023/06/22 02:43:19;;;;;;;5.55;5.05;;;;;;;;;;5091892;28;20291;-81
2023/06/22 02:45:46;;;;;;;5.53;5.13;;;;;;;;;;5091207;28;20771;-81
2023/06/22 02:48:14;;;;;;;4.50;4.20;;;;;;;;;;5093722;28;20588;-81
2023/06/22 02:50:41;;;;;;;4.57;4.28;;;;;;;;;;5094484;28;20212;-81
2023/06/22 02:53:10;;;;;;;4.53;4.20;;;;;;;;;;5099938;28;20694;-81
2023/06/22 02:55:39;;;;;;;5.30;4.80;;;;;;;;;;5095332;28;20570;-82
2023/06/22 02:58:07;;;;;;;4.75;4.35;;;;;;;;;;5095352;28;20249;-82
2023/06/22 03:00:34;;;;;;;4.50;4.20;;;;;;;;;;5095468;28;20597;-82
2023/06/22 03:03:01;;;;;;;4.13;3.83;;;;;;;;;;5095737;28;20291;-82
2023/06/22 03:05:29;;;;;;;5.75;4.85;;;;;;;;;;5094645;28;20257;-82
2023/06/22 03:07:56;;;;;;;4.20;3.90;;;;;;;;;;5094722;28;20197;-81
2023/06/22 03:10:25;;;;;;;5.97;5.57;;;;;;;;;;5095361;28;20204;-81
2023/06/22 03:12:53;;;;;;;4.60;4.30;;;;;;;;;;5094663;28;20224;-81
2023/06/22 03:15:20;;;;;;;6.10;5.60;;;;;;;;;;5095179;28;20205;-81
2023/06/22 03:17:48;;;;;;;4.53;4.22;;;;;;;;;;5094819;28;20235;-81
2023/06/22 03:20:15;;;;;;;4.22;3.83;;;;;;;;;;5094045;28;20562;-81
2023/06/22 03:22:43;;;;;;;3.90;3.60;;;;;;;;;;5094540;28;20203;-81
2023/06/22 03:25:12;;;;;;;4.55;4.25;;;;;;;;;;5094675;28;20200;-81
2023/06/22 03:27:41;;;;;;;4.75;4.45;;;;;;;;;;5094624;28;20299;-81
2023/06/22 03:30:12;;;;;;;4.78;4.47;;;;;;;;;;5094551;28;20220;-82
2023/06/22 03:32:39;;;;;;;4.60;4.20;;;;;;;;;;5094959;28;20246;-82
2023/06/22 03:35:08;;;;;;;4.63;4.22;;;;;;;;;;5094396;28;20204;-82
2023/06/22 03:37:36;;;;;;;4.55;4.15;;;;;;;;;;5094453;28;20287;-82
2023/06/22 03:40:05;;;;;;;4.72;4.43;;;;;;;;;;5094547;28;20201;-81
2023/06/22 03:42:34;;;;;;;4.70;4.40;;;;;;;;;;5094713;28;20219;-82
2023/06/22 03:45:04;;;;;;;4.57;4.18;;;;;;;;;;5094747;28;20197;-82
2023/06/22 03:47:31;;;;;;;3.65;3.42;;;;;;;;;;5093868;28;20200;-82
2023/06/22 03:49:59;;;;;;;4.35;4.05;;;;;;;;;;5093883;28;20196;-82
2023/06/22 03:52:26;;;;;;;4.40;4.10;;;;;;;;;;5093766;28;20220;-82
2023/06/22 03:54:54;;;;;;;4.60;4.30;;;;;;;;;;5093868;28;20698;-81
2023/06/22 03:57:21;;;;;;;5.32;4.47;;;;;;;;;;5094243;28;20664;-81
2023/06/22 03:59:48;;;;;;;9.98;5.53;;;;;;;;;;5093608;28;20779;-81
2023/06/22 04:02:17;;;;;;;5.13;4.72;;;;;;;;;;5094192;28;20832;-81
2023/06/22 04:04:45;;;;;;;6.28;5.78;;;;;;;;;;5093885;28;20671;-81
2023/06/22 04:07:12;;;;;;;7.35;6.75;;;;;;;;;;5093439;28;20208;-81
2023/06/22 04:09:40;;;;;;;6.55;6.05;;;;;;;;;;5098222;28;20203;-81
2023/06/22 04:12:08;;;;;;;7.20;6.50;;;;;;;;;;5093472;28;20220;-82
2023/06/22 04:14:36;;;;;;;5.68;5.28;;;;;;;;;;5093830;28;20206;-82
2023/06/22 04:17:04;;;;;;;5.57;5.18;;;;;;;;;;5094004;28;20196;-82
2023/06/22 04:19:32;;;;;;;5.18;4.78;;;;;;;;;;5093484;28;20763;-82
2023/06/22 04:22:00;;;;;;;5.93;5.43;;;;;;;;;;5093639;28;20729;-82
2023/06/22 04:24:27;;;;;;;4.97;4.57;;;;;;;;;;5093715;28;20299;-82
2023/06/22 04:26:55;;;;;;;5.72;5.22;;;;;;;;;;5093538;28;20287;-81
2023/06/22 04:29:28;;;;;;;6.30;5.80;;;;;;;;;;5093265;28;20200;-81
2023/06/22 04:31:58;;;;;;;6.25;5.75;;;;;;;;;;5093150;28;20231;-81
2023/06/22 04:34:27;;;;;;;6.55;5.95;;;;;;;;;;5093589;28;20196;-82
2023/06/22 04:36:55;;;;;;;7.00;6.40;;;;;;;;;;5093424;28;20200;-82
2023/06/22 04:39:23;;;;;;;4.70;4.30;;;;;;;;;;5093172;28;20203;-82
2023/06/22 04:41:51;;;;;;;5.30;4.88;;;;;;;;;;5093234;28;20223;-82
2023/06/22 04:44:24;;;;;;;4.32;4.03;;;;;;;;;;5093485;28;20200;-82
2023/06/22 04:46:53;;;;;;;4.85;4.45;;;;;;;;;;5093331;28;20197;-82
2023/06/22 04:49:22;;;;;;;5.18;4.70;;;;;;;;;;5093292;28;20206;-82
2023/06/22 04:51:51;;;;;;;4.53;4.13;;;;;;;;;;5093276;28;20224;-81
2023/06/22 04:54:20;;;;;;;4.25;3.85;;;;;;;;;;5093338;28;20198;-81
2023/06/22 04:56:48;;;;;;;4.55;4.15;;;;;;;;;;5092558;28;20595;-82
2023/06/22 04:59:18;;;;;;;4.70;4.30;;;;;;;;;;5092805;28;20668;-81
2023/06/22 05:01:45;;;;;;;4.47;4.00;;;;;;;;;;5093315;28;20258;-81
2023/06/22 05:04:13;;;;;;;4.72;4.35;;;;;;;;;;5093326;28;20282;-81
2023/06/22 05:06:41;;;;;;;5.57;5.18;;;;;;;;;;5092938;28;20208;-82
2023/06/22 05:09:08;;;;;;;4.97;4.53;;;;;;;;;;5092372;28;20312;-82
2023/06/22 05:11:37;;;;;;;4.60;4.20;;;;;;;;;;5091338;28;20739;-79
2023/06/22 05:14:04;;;;;;;4.65;4.35;;;;;;;;;;5092100;28;20220;-79
2023/06/22 05:16:32;;;;;;;4.53;4.20;;;;;;;;;;5092218;28;20287;-79
2023/06/22 05:18:59;;;;;;;4.57;4.20;;;;;;;;;;5091636;28;20192;-79
2023/06/22 05:21:28;;;;;;;4.60;4.20;;;;;;;;;;5092530;28;20230;-79
2023/06/22 05:23:56;;;;;;;4.47;4.18;;;;;;;;;;5092040;28;20303;-79
2023/06/22 05:26:23;;;;;;;4.47;4.18;;;;;;;;;;5092643;28;20613;-79
2023/06/22 05:28:52;;;;;;;3.60;3.30;;;;;;;;;;5092117;28;20200;-79
2023/06/22 05:31:20;;;;;;;3.85;3.55;;;;;;;;;;5091908;28;20723;-79
2023/06/22 05:33:49;;;;;;;4.50;4.18;;;;;;;;;;5091078;28;20216;-79
2023/06/22 05:36:16;;;;;;;4.57;4.18;;;;;;;;;;5091524;28;20208;-80
2023/06/22 05:38:44;;;;;;;3.95;3.65;;;;;;;;;;5091997;28;20200;-79
2023/06/22 05:41:11;;;;;;;3.55;3.25;;;;;;;;;;5091844;28;20228;-78
2023/06/22 05:43:39;;;;;;;2.65;2.45;;;;;;;;;;5091734;28;20191;-79
2023/06/22 05:46:08;;;;;;;2.75;2.55;;;;;;;;;;5091560;28;20210;-79
2023/06/22 05:48:35;;;;;;;2.85;2.65;;;;;;;;;;5091589;28;20200;-81
2023/06/22 05:51:03;;;;;;;3.75;3.50;;;;;;;;;;5092168;28;20288;-78
2023/06/22 05:53:30;;;;;;;4.78;4.38;;;;;;;;;;5091406;28;20249;-78
2023/06/22 05:55:58;;;;;;;4.47;4.15;;;;;;;;;;5092236;28;20196;-78
2023/06/22 05:58:25;;;;;;;3.88;3.58;;;;;;;;;;5092085;28;20204;-78
2023/06/22 06:00:52;;;;;;;4.15;3.85;;;;;;;;;;5092337;28;20307;-77
2023/06/22 06:03:21;;;;;;;4.40;4.10;;;;;;;;;;5092275;28;20205;-77
2023/06/22 06:05:49;;;;;;;4.45;4.05;;;;;;;;;;5092119;28;20208;-77
2023/06/22 06:08:16;;;;;;;4.18;3.85;;;;;;;;;;5091951;28;20690;-78
2023/06/22 06:10:43;;;;;;;3.45;3.25;;;;;;;;;;5091919;28;20222;-78
2023/06/22 06:13:11;;;;;;;4.35;4.05;;;;;;;;;;5092167;28;20592;-78
2023/06/22 06:15:39;;;;;;;3.65;3.38;;;;;;;;;;5091934;28;20626;-77
2023/06/22 06:18:07;;;;;;;3.40;3.10;;;;;;;;;;5092401;28;20667;-78
2023/06/22 06:20:36;;;;;;;4.43;4.03;;;;;;;;;;5095890;28;20220;-79
2023/06/22 06:23:04;;;;;;;5.10;4.70;;;;;;;;;;5096276;28;20200;-77
2023/06/22 06:25:31;;;;;;;5.05;4.65;;;;;;;;;;5096076;28;20738;-78
2023/06/22 06:27:58;;;;;;;3.90;3.60;;;;;;;;;;5096117;28;20258;-78
2023/06/22 06:30:26;;;;;;;4.93;4.53;;;;;;;;;;5096163;28;20700;-77
2023/06/22 06:32:53;;;;;;;4.88;4.40;;;;;;;;;;5095585;28;20196;-78
2023/06/22 06:35:21;;;;;;;5.30;4.07;;;;;;;;;;5095679;28;20874;-77
2023/06/22 06:37:51;;;;;;;4.43;4.13;;;;;;;;;;5095826;28;20204;-78
2023/06/22 06:40:20;;;;;;;5.03;4.63;;;;;;;;;;5095558;28;20690;-78
2023/06/22 06:42:49;;;;;;;4.15;3.88;;;;;;;;;;5096169;28;20295;-77
2023/06/22 06:45:19;;;;;;;4.35;3.95;;;;;;;;;;5095910;28;20664;-78
2023/06/22 06:47:47;;;;;;;4.70;4.30;;;;;;;;;;5095481;28;20569;-78
2023/06/22 06:50:14;;;;;;;5.50;5.07;;;;;;;;;;5095034;28;20204;-78
2023/06/22 06:52:42;;;;;;;5.55;5.15;;;;;;;;;;5094855;28;20200;-79
2023/06/22 06:55:12;;;;;;;5.05;4.70;;;;;;;;;;5095107;28;20228;-78
2023/06/22 06:57:40;;;;;;;4.38;4.07;;;;;;;;;;5095205;28;20204;-78
2023/06/22 07:00:13;;;;;;;4.55;4.25;;;;;;;;;;5095226;28;20661;-78
2023/06/22 07:02:42;;;;;;;3.97;3.67;;;;;;;;;;5095160;28;20577;-78
2023/06/22 07:05:10;;;;;;;5.05;4.65;;;;;;;;;;5091935;28;20609;-78
2023/06/22 07:07:37;;;;;;;4.63;4.22;;;;;;;;;;5098294;28;20204;-79
2023/06/22 07:10:06;;;;;;;5.32;4.93;;;;;;;;;;5102948;28;20199;-79
2023/06/22 07:12:35;;;;;;;4.63;4.32;;;;;;;;;;5080778;28;20283;-78
2023/06/22 07:15:07;;;;;;;4.10;3.80;;;;;;;;;;5094695;28;20748;-78
2023/06/22 07:17:35;;;;;;;5.25;4.75;;;;;;;;;;5090722;28;20188;-77
2023/06/22 07:20:04;;;;;;;6.75;6.13;;;;;;;;;;5115036;28;20199;-78
2023/06/22 07:22:31;;;;;;;4.47;4.13;;;;;;;;;;5115290;28;20589;-78
2023/06/22 07:24:59;;;;;;;4.43;4.13;;;;;;;;;;5115160;28;20279;-80
2023/06/22 07:27:26;;;;;;;5.63;5.07;;;;;;;;;;5114625;28;20206;-80
2023/06/22 07:29:56;;;;;;;4.03;3.72;;;;;;;;;;5114696;28;20195;-80
2023/06/22 07:32:23;;;;;;;4.22;3.90;;;;;;;;;;5114621;28;20220;-79
2023/06/22 07:34:51;;;;;;;4.88;4.47;;;;;;;;;;5109794;28;20597;-79
2023/06/22 07:37:18;;;;;;;5.28;4.88;;;;;;;;;;5094468;28;20204;-81
2023/06/22 07:39:45;;;;;;;5.68;5.22;;;;;;;;;;5094386;28;20207;-79
2023/06/22 07:42:13;;;;;;;9.25;5.47;;;;;;;;;;5094080;28;20676;-79
2023/06/22 07:44:40;;;;;;;6.40;5.90;;;;;;;;;;5093707;28;20196;-81
2023/06/22 07:47:09;;;;;;;5.50;5.00;;;;;;;;;;5094202;28;20201;-81
2023/06/22 07:49:37;;;;;;;5.50;5.05;;;;;;;;;;5094050;28;20329;-80
2023/06/22 07:52:06;;;;;;;6.63;6.13;;;;;;;;;;5093658;28;20655;-81
2023/06/22 07:54:33;;;;;;;6.10;5.68;;;;;;;;;;5094161;28;20220;-81
2023/06/22 07:57:01;;;;;;;7.13;6.53;;;;;;;;;;5094679;28;20196;-79
2023/06/22 07:59:28;;;;;;;6.28;5.78;;;;;;;;;;5093267;28;20201;-81
2023/06/22 08:01:57;;;;;;;5.45;5.05;;;;;;;;;;5085439;28;20239;-81
2023/06/22 08:04:27;;;;;;;4.68;4.28;;;;;;;;;;5094015;28;20200;-80
2023/06/22 08:06:54;;;;;;;6.15;5.65;;;;;;;;;;5094198;28;20200;-80
2023/06/22 08:09:22;;;;;;;7.05;6.45;;;;;;;;;;5093970;28;20204;-80
2023/06/22 08:11:50;;;;;;;5.22;4.82;;;;;;;;;;5093601;28;20223;-81
2023/06/22 08:14:17;;;;;;;6.75;6.25;;;;;;;;;;5093777;28;20315;-81
2023/06/22 08:16:44;;;;;;;6.10;5.60;;;;;;;;;;5093160;28;20201;-80
2023/06/22 08:19:12;;;;;;;5.65;5.25;;;;;;;;;;5093576;28;20392;-81
2023/06/22 08:21:41;;;;;;;5.88;5.38;;;;;;;;;;5093660;28;20216;-81
2023/06/22 08:24:09;;;;;;;6.75;6.00;;;;;;;;;;5093035;28;20200;-81
2023/06/22 08:26:37;;;;;;;6.55;5.95;;;;;;;;;;5093430;28;20207;-81
2023/06/22 08:29:05;;;;;;;6.10;5.60;;;;;;;;;;5093315;28;20664;-82
2023/06/22 08:31:34;;;;;;;6.40;5.90;;;;;;;;;;5093311;28;20226;-80
2023/06/22 08:34:01;;;;;;;4.60;4.30;;;;;;;;;;5093394;28;20253;-81
2023/06/22 08:36:32;;;;;;;4.60;4.30;;;;;;;;;;5093137;28;20315;-80
2023/06/22 08:39:02;;;;;;;6.80;6.20;;;;;;;;;;5092890;28;20298;-80
2023/06/22 08:41:30;;;;;;;6.40;5.80;;;;;;;;;;5092979;28;20228;-81
2023/06/22 08:43:58;;;;;;;7.65;6.93;;;;;;;;;;5092927;28;20196;-80
2023/06/22 08:46:30;;;;;;;5.97;5.47;;;;;;;;;;5093035;28;20196;-80
2023/06/22 08:48:58;;;;;;;6.82;6.32;;;;;;;;;;5092911;28;20197;-81
2023/06/22 08:51:25;;;;;;;7.75;7.10;;;;;;;;;;5092679;28;20224;-80
2023/06/22 08:53:53;;;;;;;22.85;20.67;;;;;;;;;;5092603;28;20706;-79
2023/06/22 08:56:21;;;;;;;9.25;8.52;;;;;;;;;;5092249;28;20227;-80
2023/06/22 08:58:49;;;;;;;7.75;7.15;;;;;;;;;;5092071;28;20264;-79
2023/06/22 09:01:16;;;;;;;8.18;7.40;;;;;;;;;;5092076;28;20230;-78
2023/06/22 09:03:44;;;;;;;7.85;7.18;;;;;;;;;;5092500;28;20201;-82
2023/06/22 09:06:13;;;;;;;7.93;7.18;;;;;;;;;;5092353;28;20200;-83
2023/06/22 09:08:41;;;;;;;6.55;6.05;;;;;;;;;;5092984;28;20682;-82
2023/06/22 09:11:08;;;;;;;5.35;4.95;;;;;;;;;;5092637;28;20252;-83
2023/06/22 09:13:37;;;;;;;6.57;6.00;;;;;;;;;;5092696;28;20220;-82
2023/06/22 09:16:05;;;;;;;6.25;5.75;;;;;;;;;;5092303;28;20962;-83
2023/06/22 09:18:32;;;;;;;5.68;5.28;;;;;;;;;;5092697;28;20227;-82
2023/06/22 09:21:00;;;;;;;6.05;5.55;;;;;;;;;;5092390;28;20216;-82
2023/06/22 09:23:28;;;;;;;5.80;5.40;;;;;;;;;;5092711;28;20663;-83
2023/06/22 09:25:55;;;;;;;5.30;4.90;;;;;;;;;;5092396;28;20352;-83
2023/06/22 09:28:23;;;;;;;6.32;5.93;;;;;;;;;;5092073;28;20204;-82
2023/06/22 09:30:57;;;;;;;5.00;4.50;;;;;;;;;;5092367;28;20220;-82
2023/06/22 09:33:25;;;;;;;6.30;5.80;;;;;;;;;;5092326;28;20239;-83
2023/06/22 09:35:53;;;;;;;5.57;5.18;;;;;;;;;;5092091;28;20238;-82
2023/06/22 09:38:20;;;;;;;6.43;5.93;;;;;;;;;;5091998;28;20206;-82
2023/06/22 09:40:48;;;;;;;5.75;5.35;;;;;;;;;;5091770;28;20266;-82
2023/06/22 09:43:15;;;;;;;6.20;5.72;;;;;;;;;;5091182;28;20196;-81
2023/06/22 09:45:43;;;;;;;7.18;6.57;;;;;;;;;;5092490;28;20200;-82
2023/06/22 09:48:12;;;;;;;6.90;6.38;;;;;;;;;;5092657;28;20620;-82
2023/06/22 09:50:39;;;;;;;7.18;6.57;;;;;;;;;;5091999;28;20702;-83
2023/06/22 09:53:07;;;;;;;7.35;6.75;;;;;;;;;;5091947;28;20206;-81
2023/06/22 09:55:34;;;;;;;7.43;6.82;;;;;;;;;;5091615;28;20222;-84
2023/06/22 09:58:01;;;;;;;7.07;6.57;;;;;;;;;;5090874;28;20202;-82
2023/06/22 10:00:29;;;;;;;6.75;6.25;;;;;;;;;;5091869;28;20582;-82
2023/06/22 10:02:57;;;;;;;6.75;6.25;;;;;;;;;;5092332;28;20196;-83
2023/06/22 10:05:26;;;;;;;7.50;6.90;;;;;;;;;;5092479;28;20721;-83
2023/06/22 10:07:53;;;;;;;6.90;6.40;;;;;;;;;;5091607;28;20212;-82
2023/06/22 10:10:20;;;;;;;5.38;4.97;;;;;;;;;;5091923;28;20295;-83
2023/06/22 10:12:56;;;;;;;9.60;8.70;;;;;;;;;;5094106;28;20199;-83
2023/06/22 10:15:24;;;;;;;10.55;9.65;;;;;;;;;;5095849;28;20204;-83
2023/06/22 10:17:51;;;;;;;7.00;6.43;;;;;;;;;;5093381;28;20204;-83
2023/06/22 10:20:20;;;;;;;6.68;6.22;;;;;;;;;;5092469;28;20207;-82
2023/06/22 10:22:49;;;;;;;6.47;6.05;;;;;;;;;;5092206;28;20200;-82
2023/06/22 10:25:16;;;;;;;6.65;6.15;;;;;;;;;;5091949;28;20202;-82
2023/06/22 10:27:44;;;;;;;6.88;6.28;;;;;;;;;;5091690;28;20200;-84
2023/06/22 10:30:13;;;;;;;7.03;6.38;;;;;;;;;;5092447;28;20254;-83
2023/06/22 10:32:42;;;;;;;7.57;6.95;;;;;;;;;;5092603;28;20590;-83
2023/06/22 10:35:13;;;;;;;6.80;6.30;;;;;;;;;;5092633;28;20249;-82
2023/06/22 10:37:42;;;;;;;6.82;6.32;;;;;;;;;;5092140;28;20586;-79
2023/06/22 10:40:13;;;;;;;5.70;5.30;;;;;;;;;;5091641;28;20196;-79
2023/06/22 10:42:41;;;;;;;4.65;4.30;;;;;;;;;;5091324;28;20596;-79
2023/06/22 10:45:10;;;;;;;6.53;6.05;;;;;;;;;;5091435;28;20664;-80
2023/06/22 10:47:37;;;;;;;6.43;6.03;;;;;;;;;;5091254;28;20207;-79
2023/06/22 10:50:07;;;;;;;5.78;5.30;;;;;;;;;;5091663;28;20268;-81
2023/06/22 10:52:34;;;;;;;5.45;5.05;;;;;;;;;;5094757;28;20208;-82
2023/06/22 10:55:02;;;;;;;5.75;5.35;;;;;;;;;;5095654;28;20258;-82
2023/06/22 10:57:31;;;;;;;6.50;6.00;;;;;;;;;;5093276;28;20307;-82
2023/06/22 10:59:58;;;;;;;6.10;5.70;;;;;;;;;;5092775;28;20214;-84
2023/06/22 11:02:28;;;;;;;6.35;5.75;;;;;;;;;;5092027;28;20324;-82
2023/06/22 11:04:55;;;;;;;6.00;5.53;;;;;;;;;;5093015;28;20204;-83
2023/06/22 11:07:23;;;;;;;6.45;5.95;;;;;;;;;;5093095;28;20888;-80
2023/06/22 11:09:50;;;;;;;6.07;5.68;;;;;;;;;;5094216;28;20223;-80
2023/06/22 11:12:18;;;;;;;5.93;5.45;;;;;;;;;;5096166;28;20220;-83
2023/06/22 11:14:47;;;;;;;6.03;5.53;;;;;;;;;;5096670;28;20300;-80
2023/06/22 11:17:14;;;;;;;6.28;5.82;;;;;;;;;;5095625;28;20224;-80
2023/06/22 11:19:42;;;;;;;7.43;6.82;;;;;;;;;;5095225;28;20210;-80
2023/06/22 11:22:09;;;;;;;7.05;6.55;;;;;;;;;;5094585;28;20598;-80
2023/06/22 11:24:36;;;;;;;7.50;6.88;;;;;;;;;;5094099;28;20295;-85
2023/06/22 11:27:04;;;;;;;6.32;5.82;;;;;;;;;;5094629;28;20197;-83
2023/06/22 11:29:31;;;;;;;6.75;6.25;;;;;;;;;;5095232;28;20204;-81
2023/06/22 11:32:00;;;;;;;7.15;6.60;;;;;;;;;;5096863;28;20311;-83
2023/06/22 11:34:28;;;;;;;6.38;5.88;;;;;;;;;;5096030;28;20204;-83
2023/06/22 11:36:55;;;;;;;6.20;5.68;;;;;;;;;;5094909;28;20660;-83
2023/06/22 11:39:22;;;;;;;6.85;6.35;;;;;;;;;;5092506;28;20204;-83
2023/06/22 11:41:50;;;;;;;6.93;6.43;;;;;;;;;;5092900;28;20315;-81
2023/06/22 11:44:17;;;;;;;7.03;6.43;;;;;;;;;;5102011;28;20561;-83
2023/06/22 11:46:45;;;;;;;6.13;5.57;;;;;;;;;;5093897;28;20292;-82
2023/06/22 11:49:14;;;;;;;8.68;6.15;;;;;;;;;;5093644;28;20580;-82
2023/06/22 11:51:41;;;;;;;6.97;6.47;;;;;;;;;;5094250;28;20226;-82
2023/06/22 11:54:08;;;;;;;7.13;6.53;;;;;;;;;;5093861;28;20202;-83
2023/06/22 11:56:36;;;;;;;6.45;5.97;;;;;;;;;;5092382;28;20699;-81
2023/06/22 11:59:03;;;;;;;7.05;6.50;;;;;;;;;;5093753;28;20218;-82
2023/06/22 12:01:32;;;;;;;6.25;5.75;;;;;;;;;;5092442;28;20224;-81
2023/06/22 12:04:00;;;;;;;6.45;5.95;;;;;;;;;;5094036;28;20207;-82
2023/06/22 12:06:29;;;;;;;6.80;6.35;;;;;;;;;;5093913;28;20215;-82
2023/06/22 12:08:56;;;;;;;6.45;5.95;;;;;;;;;;5098602;28;20231;-82
2023/06/22 12:11:24;;;;;;;5.88;5.47;;;;;;;;;;5114303;28;20225;-83
2023/06/22 12:13:51;;;;;;;6.43;5.82;;;;;;;;;;5116255;28;20294;-83
2023/06/22 12:16:20;;;;;;;6.30;5.80;;;;;;;;;;5114291;28;20290;-82
2023/06/22 12:18:49;;;;;;;5.75;5.35;;;;;;;;;;5114108;28;20265;-83
2023/06/22 12:21:16;;;;;;;6.18;5.68;;;;;;;;;;5113414;28;20231;-84
2023/06/22 12:23:45;;;;;;;5.68;5.28;;;;;;;;;;5113893;28;20200;-82
2023/06/22 12:26:12;;;;;;;6.55;6.00;;;;;;;;;;5113537;28;20306;-83
2023/06/22 12:28:40;;;;;;;6.07;5.60;;;;;;;;;;5113487;28;20195;-81
2023/06/22 12:31:07;;;;;;;5.38;4.97;;;;;;;;;;5104824;28;20307;-82
2023/06/22 12:33:35;;;;;;;5.60;5.20;;;;;;;;;;5101441;28;20192;-81
2023/06/22 12:36:03;;;;;;;5.30;4.90;;;;;;;;;;5092958;28;20200;-81
2023/06/22 12:38:30;;;;;;;5.38;4.97;;;;;;;;;;5092650;28;20217;-83
2023/06/22 12:40:59;;;;;;;5.55;5.15;;;;;;;;;;5093032;28;20254;-84
2023/06/22 12:43:27;;;;;;;5.30;4.97;;;;;;;;;;5093244;28;20902;-84
2023/06/22 12:45:54;;;;;;;5.32;4.93;;;;;;;;;;5092997;28;20206;-84
2023/06/22 12:48:22;;;;;;;5.82;5.35;;;;;;;;;;5092886;28;20257;-84
2023/06/22 12:50:49;;;;;;;6.00;5.50;;;;;;;;;;5093073;28;20227;-82
2023/06/22 12:53:17;;;;;;;6.10;5.55;;;;;;;;;;5092805;28;20580;-81
2023/06/22 12:55:44;;;;;;;5.90;5.50;;;;;;;;;;5093519;28;20204;-83
2023/06/22 12:58:13;;;;;;;5.55;5.15;;;;;;;;;;5092918;28;20220;-83
2023/06/22 13:00:41;;;;;;;5.80;5.40;;;;;;;;;;5092789;28;20240;-82
2023/06/22 13:03:08;;;;;;;4.72;4.43;;;;;;;;;;5100900;28;20656;-83
2023/06/22 13:05:36;;;;;;;5.45;5.05;;;;;;;;;;5094378;28;20287;-82
2023/06/22 13:08:05;;;;;;;6.45;5.95;;;;;;;;;;5093641;28;20204;-82
2023/06/22 13:10:32;;;;;;;6.22;5.82;;;;;;;;;;5082969;28;20234;-83
2023/06/22 13:13:01;;;;;;;5.63;5.20;;;;;;;;;;5091498;28;20208;-83
2023/06/22 13:15:30;;;;;;;7.28;6.57;;;;;;;;;;5092004;28;20196;-83
2023/06/22 13:17:58;;;;;;;6.63;6.13;;;;;;;;;;5099421;28;20221;-83
2023/06/22 13:20:25;;;;;;;5.80;5.38;;;;;;;;;;5093004;28;20199;-82
2023/06/22 13:22:54;;;;;;;5.85;5.45;;;;;;;;;;5087821;28;20203;-84
2023/06/22 13:25:23;;;;;;;6.35;5.75;;;;;;;;;;5100614;28;20203;-82
2023/06/22 13:27:51;;;;;;;7.00;6.50;;;;;;;;;;5092418;28;20549;-81
2023/06/22 13:30:18;;;;;;;5.80;5.35;;;;;;;;;;5092227;28;20644;-82
2023/06/22 13:32:47;;;;;;;6.20;5.80;;;;;;;;;;5091386;28;20211;-84
2023/06/22 13:35:15;;;;;;;6.03;5.53;;;;;;;;;;5091974;28;20215;-85
2023/06/22 13:37:42;;;;;;;6.80;6.30;;;;;;;;;;5091736;28;20234;-83
2023/06/22 13:40:10;;;;;;;7.00;6.50;;;;;;;;;;5091386;28;20207;-82
2023/06/22 13:42:38;;;;;;;5.97;5.47;;;;;;;;;;5085880;28;20207;-82
2023/06/22 13:45:07;;;;;;;6.30;5.70;;;;;;;;;;5100477;28;20199;-84
2023/06/22 13:47:34;;;;;;;5.35;4.95;;;;;;;;;;5071912;28;20285;-82
2023/06/22 13:50:04;;;;;;;5.32;4.93;;;;;;;;;;5072121;28;20207;-83
2023/06/22 13:52:31;;;;;;;5.10;4.72;;;;;;;;;;5072060;28;20227;-84
2023/06/22 13:54:58;;;;;;;5.45;5.05;;;;;;;;;;5071895;28;20672;-83
2023/06/22 13:57:26;;;;;;;6.40;5.72;;;;;;;;;;5071242;28;20243;-84
2023/06/22 13:59:54;;;;;;;6.47;5.97;;;;;;;;;;5072027;28;20580;-83
2023/06/22 14:02:21;;;;;;;5.88;5.47;;;;;;;;;;5072198;28;20243;-84
2023/06/22 14:04:49;;;;;;;5.93;5.47;;;;;;;;;;5074733;28;20214;-85
2023/06/22 14:07:19;;;;;;;5.32;4.82;;;;;;;;;;5091914;28;20292;-83
2023/06/22 14:09:46;;;;;;;5.50;5.10;;;;;;;;;;5092135;28;20204;-85
2023/06/22 14:12:14;;;;;;;5.45;5.05;;;;;;;;;;5087951;28;20216;-84
2023/06/22 14:14:42;;;;;;;7.05;5.85;;;;;;;;;;5096732;28;20187;-85
2023/06/22 14:17:09;;;;;;;5.15;4.75;;;;;;;;;;5094866;28;20206;-83
2023/06/22 14:19:36;;;;;;;5.18;4.75;;;;;;;;;;5091546;28;20224;-84
2023/06/22 14:22:04;;;;;;;4.80;4.40;;;;;;;;;;5091748;28;20225;-84
2023/06/22 14:24:33;;;;;;;5.55;5.05;;;;;;;;;;5092114;28;20197;-84
2023/06/22 14:27:03;;;;;;;7.35;6.65;;;;;;;;;;5092189;28;20200;-84
2023/06/22 14:29:30;;;;;;;5.75;5.25;;;;;;;;;;5091919;28;20223;-84
2023/06/22 14:32:00;;;;;;;5.95;5.55;;;;;;;;;;5091322;28;20222;-83
2023/06/22 14:34:28;;;;;;;4.93;4.32;;;;;;;;;;5091981;28;20204;-83
2023/06/22 14:36:55;;;;;;;7.93;4.30;;;;;;;;;;5092081;28;20208;-84
2023/06/22 14:39:23;;;;;;;7.13;4.40;;;;;;;;;;5090447;28;20228;-85
2023/06/22 14:41:52;;;;;;;7.90;4.28;;;;;;;;;;5091726;28;20598;-85
2023/06/22 14:44:19;;;;;;;6.18;3.15;;;;;;;;;;5095044;28;20300;-88
2023/06/22 14:46:47;;;;;;;5.57;3.95;;;;;;;;;;5095618;28;20334;-87
2023/06/22 14:49:14;;;;;;;5.35;3.72;;;;;;;;;;5096067;28;20196;-87